createdAt,value
2023-04-28T00:00:16.548Z,22.52
2023-04-28T00:01:16.595Z,22.52
2023-04-28T00:02:16.730Z,22.52
2023-04-28T00:03:16.852Z,22.52
2023-04-28T00:04:17.225Z,22.52
2023-04-28T00:05:16.893Z,22.52
2023-04-28T00:06:16.873Z,22.51
2023-04-28T00:07:16.927Z,22.52
2023-04-28T00:08:16.996Z,22.52
2023-04-28T00:09:17.036Z,22.51
2023-04-28T00:10:17.093Z,22.51
2023-04-28T00:11:17.150Z,22.52
2023-04-28T00:12:17.226Z,22.51
2023-04-28T00:13:17.259Z,22.52
2023-04-28T00:14:17.496Z,22.52
2023-04-28T00:15:17.358Z,22.51
2023-04-28T00:16:17.468Z,22.51
2023-04-28T00:17:17.546Z,22.51
2023-04-28T00:18:17.590Z,22.50
2023-04-28T00:19:17.594Z,22.51
2023-04-28T00:20:17.652Z,22.50
2023-04-28T00:21:17.756Z,22.51
2023-04-28T00:22:17.772Z,22.50
2023-04-28T00:23:17.802Z,22.50
2023-04-28T00:24:18.018Z,22.50
2023-04-28T00:25:17.937Z,22.51
2023-04-28T00:26:17.986Z,22.50
2023-04-28T00:27:18.057Z,22.50
2023-04-28T00:28:30.561Z,22.50
2023-04-28T00:29:19.095Z,22.50
2023-04-28T00:30:18.081Z,22.49
2023-04-28T00:31:18.147Z,22.50
2023-04-28T00:32:18.077Z,22.50
2023-04-28T00:33:18.073Z,22.50
2023-04-28T00:34:18.344Z,22.50
2023-04-28T00:35:18.073Z,22.50
2023-04-28T00:36:18.077Z,22.50
2023-04-28T00:37:18.066Z,22.49
2023-04-28T00:38:18.129Z,22.50
2023-04-28T00:39:18.187Z,22.50
2023-04-28T00:40:18.241Z,22.49
2023-04-28T00:41:18.291Z,22.50
2023-04-28T00:42:18.363Z,22.50
2023-04-28T00:43:18.410Z,22.49
2023-04-28T00:44:18.465Z,22.49
2023-04-28T00:45:18.530Z,22.49
2023-04-28T00:46:18.743Z,22.49
2023-04-28T00:47:18.647Z,22.49
2023-04-28T00:48:18.701Z,22.48
2023-04-28T00:49:18.763Z,22.49
2023-04-28T00:50:18.816Z,22.48
2023-04-28T00:51:18.868Z,22.49
2023-04-28T00:52:18.935Z,22.48
2023-04-28T00:53:18.981Z,22.48
2023-04-28T00:54:19.242Z,22.48
2023-04-28T00:55:19.090Z,22.48
2023-04-28T00:56:19.145Z,22.47
2023-04-28T00:57:19.196Z,22.48
2023-04-28T00:58:19.251Z,22.48
2023-04-28T00:59:19.305Z,22.48
2023-04-28T01:00:19.379Z,22.47
2023-04-28T01:01:19.482Z,22.47
2023-04-28T01:02:19.545Z,22.48
2023-04-28T01:03:19.640Z,22.47
2023-04-28T01:04:20.027Z,22.47
2023-04-28T01:05:19.647Z,22.47
2023-04-28T01:06:19.697Z,22.47
2023-04-28T01:07:19.761Z,22.47
2023-04-28T01:08:19.807Z,22.46
2023-04-28T01:09:19.893Z,22.47
2023-04-28T01:10:19.922Z,22.47
2023-04-28T01:11:19.991Z,22.47
2023-04-28T01:12:20.053Z,22.47
2023-04-28T01:13:20.113Z,22.47
2023-04-28T01:14:20.162Z,22.47
2023-04-28T01:15:20.235Z,22.47
2023-04-28T01:16:20.316Z,22.47
2023-04-28T01:17:20.343Z,22.46
2023-04-28T01:18:20.403Z,22.46
2023-04-28T01:19:20.457Z,22.47
2023-04-28T01:20:20.527Z,22.46
2023-04-28T01:21:20.573Z,22.46
2023-04-28T01:22:20.633Z,22.46
2023-04-28T01:23:20.686Z,22.46
2023-04-28T01:24:20.750Z,22.46
2023-04-28T01:25:20.816Z,22.46
2023-04-28T01:26:20.868Z,22.46
2023-04-28T01:27:20.921Z,22.45
2023-04-28T01:28:20.986Z,22.45
2023-04-28T01:29:21.045Z,22.45
2023-04-28T01:30:21.106Z,22.46
2023-04-28T01:31:21.189Z,22.46
2023-04-28T01:32:21.235Z,22.46
2023-04-28T01:33:21.295Z,22.45
2023-04-28T01:34:21.366Z,22.45
2023-04-28T01:35:21.429Z,22.45
2023-04-28T01:36:21.492Z,22.45
2023-04-28T01:37:21.555Z,22.45
2023-04-28T01:38:21.614Z,22.45
2023-04-28T01:39:21.689Z,22.45
2023-04-28T01:40:21.740Z,22.45
2023-04-28T01:41:21.794Z,22.45
2023-04-28T01:42:21.854Z,22.45
2023-04-28T01:43:21.899Z,22.45
2023-04-28T01:44:21.956Z,22.45
2023-04-28T01:45:22.033Z,22.45
2023-04-28T01:46:22.116Z,22.44
2023-04-28T01:47:22.157Z,22.45
2023-04-28T01:48:22.200Z,22.45
2023-04-28T01:49:22.252Z,22.45
2023-04-28T01:50:22.311Z,22.45
2023-04-28T01:51:22.375Z,22.44
2023-04-28T01:52:22.425Z,22.44
2023-04-28T01:53:22.484Z,22.44
2023-04-28T01:54:22.542Z,22.43
2023-04-28T01:55:22.618Z,22.44
2023-04-28T01:56:22.654Z,22.43
2023-04-28T01:57:22.749Z,22.44
2023-04-28T01:58:22.770Z,22.44
2023-04-28T01:59:22.823Z,22.45
2023-04-28T02:00:22.909Z,22.43
2023-04-28T02:01:22.951Z,22.43
2023-04-28T02:02:23.095Z,22.44
2023-04-28T02:03:23.178Z,22.44
2023-04-28T02:04:23.230Z,22.43
2023-04-28T02:05:23.184Z,22.44
2023-04-28T02:06:23.240Z,22.44
2023-04-28T02:07:23.293Z,22.44
2023-04-28T02:08:23.360Z,22.43
2023-04-28T02:09:23.420Z,22.44
2023-04-28T02:10:23.468Z,22.43
2023-04-28T02:11:23.536Z,22.42
2023-04-28T02:12:23.589Z,22.42
2023-04-28T02:13:23.643Z,22.43
2023-04-28T02:14:23.716Z,22.42
2023-04-28T02:15:23.771Z,22.43
2023-04-28T02:16:23.897Z,22.42
2023-04-28T02:17:23.906Z,22.42
2023-04-28T02:18:23.959Z,22.43
2023-04-28T02:19:24.020Z,22.42
2023-04-28T02:20:24.052Z,22.42
2023-04-28T02:21:24.140Z,22.43
2023-04-28T02:22:24.180Z,22.42
2023-04-28T02:23:24.239Z,22.42
2023-04-28T02:24:24.301Z,22.43
2023-04-28T02:25:24.354Z,22.42
2023-04-28T02:26:24.429Z,22.42
2023-04-28T02:27:24.473Z,22.42
2023-04-28T02:28:24.560Z,22.41
2023-04-28T02:29:24.601Z,22.42
2023-04-28T02:30:24.651Z,22.41
2023-04-28T02:31:24.807Z,22.42
2023-04-28T02:32:24.831Z,22.41
2023-04-28T02:33:24.816Z,22.41
2023-04-28T02:34:24.892Z,22.42
2023-04-28T02:35:24.949Z,22.41
2023-04-28T02:36:25.005Z,22.41
2023-04-28T02:37:25.069Z,22.42
2023-04-28T02:38:25.119Z,22.41
2023-04-28T02:39:25.180Z,22.41
2023-04-28T02:40:25.234Z,22.41
2023-04-28T02:41:25.303Z,22.41
2023-04-28T02:42:25.358Z,22.40
2023-04-28T02:43:25.410Z,22.40
2023-04-28T02:44:25.478Z,22.40
2023-04-28T02:45:25.533Z,22.41
2023-04-28T02:46:25.654Z,22.41
2023-04-28T02:47:25.767Z,22.41
2023-04-28T02:48:25.727Z,22.40
2023-04-28T02:49:25.781Z,22.40
2023-04-28T02:50:25.919Z,22.40
2023-04-28T02:51:25.935Z,22.40
2023-04-28T02:52:25.971Z,22.40
2023-04-28T02:53:26.026Z,22.40
2023-04-28T02:54:26.086Z,22.40
2023-04-28T02:55:26.153Z,22.40
2023-04-28T02:56:26.211Z,22.40
2023-04-28T02:57:26.284Z,22.40
2023-04-28T02:58:26.348Z,22.40
2023-04-28T02:59:26.408Z,22.39
2023-04-28T03:00:26.480Z,22.40
2023-04-28T03:01:26.585Z,22.40
2023-04-28T03:02:26.662Z,22.39
2023-04-28T03:03:26.825Z,22.40
2023-04-28T03:04:26.845Z,22.39
2023-04-28T03:05:26.785Z,22.39
2023-04-28T03:06:26.878Z,22.40
2023-04-28T03:07:26.910Z,22.40
2023-04-28T03:08:26.970Z,22.40
2023-04-28T03:09:27.035Z,22.40
2023-04-28T03:10:27.100Z,22.40
2023-04-28T03:11:27.164Z,22.41
2023-04-28T03:12:27.219Z,22.40
2023-04-28T03:13:27.285Z,22.41
2023-04-28T03:14:27.333Z,22.40
2023-04-28T03:15:27.391Z,22.41
2023-04-28T03:16:27.440Z,22.41
2023-04-28T03:17:27.485Z,22.41
2023-04-28T03:18:27.512Z,22.40
2023-04-28T03:19:27.559Z,22.40
2023-04-28T03:20:27.623Z,22.41
2023-04-28T03:21:27.681Z,22.40
2023-04-28T03:22:27.750Z,22.40
2023-04-28T03:23:27.805Z,22.40
2023-04-28T03:24:27.857Z,22.41
2023-04-28T03:25:27.927Z,22.41
2023-04-28T03:26:27.988Z,22.41
2023-04-28T03:27:28.051Z,22.42
2023-04-28T03:28:28.117Z,22.42
2023-04-28T03:29:28.167Z,22.42
2023-04-28T03:30:28.221Z,22.43
2023-04-28T03:31:28.313Z,22.43
2023-04-28T03:32:28.385Z,22.43
2023-04-28T03:33:28.397Z,22.43
2023-04-28T03:34:28.445Z,22.43
2023-04-28T03:35:28.496Z,22.44
2023-04-28T03:36:28.552Z,22.44
2023-04-28T03:37:28.608Z,22.45
2023-04-28T03:38:28.664Z,22.45
2023-04-28T03:39:28.721Z,22.45
2023-04-28T03:40:28.795Z,22.45
2023-04-28T03:41:28.853Z,22.46
2023-04-28T03:42:28.902Z,22.46
2023-04-28T03:43:28.970Z,22.47
2023-04-28T03:44:29.024Z,22.46
2023-04-28T03:45:29.093Z,22.46
2023-04-28T03:46:29.285Z,22.46
2023-04-28T03:47:29.204Z,22.47
2023-04-28T03:48:29.311Z,22.46
2023-04-28T03:49:29.328Z,22.47
2023-04-28T03:50:29.386Z,22.47
2023-04-28T03:51:29.439Z,22.47
2023-04-28T03:52:29.500Z,22.48
2023-04-28T03:53:29.552Z,22.47
2023-04-28T03:54:29.612Z,22.47
2023-04-28T03:55:29.665Z,22.48
2023-04-28T03:56:29.722Z,22.48
2023-04-28T03:57:29.785Z,22.48
2023-04-28T03:58:29.826Z,22.48
2023-04-28T03:59:29.880Z,22.48
2023-04-28T04:00:29.942Z,22.48
2023-04-28T04:01:29.986Z,22.48
2023-04-28T04:02:30.179Z,22.48
2023-04-28T04:03:30.216Z,22.49
2023-04-28T04:04:30.683Z,22.49
2023-04-28T04:05:30.255Z,22.48
2023-04-28T04:06:30.280Z,22.48
2023-04-28T04:07:30.343Z,22.49
2023-04-28T04:08:30.400Z,22.48
2023-04-28T04:09:30.459Z,22.48
2023-04-28T04:10:30.516Z,22.49
2023-04-28T04:11:30.567Z,22.48
2023-04-28T04:12:30.634Z,22.48
2023-04-28T04:13:30.686Z,22.48
2023-04-28T04:14:30.745Z,22.49
2023-04-28T04:15:30.798Z,22.48
2023-04-28T04:16:31.020Z,22.49
2023-04-28T04:17:30.959Z,22.48
2023-04-28T04:18:30.980Z,22.48
2023-04-28T04:19:31.049Z,22.49
2023-04-28T04:20:31.104Z,22.49
2023-04-28T04:21:31.169Z,22.49
2023-04-28T04:22:31.220Z,22.49
2023-04-28T04:23:31.277Z,22.49
2023-04-28T04:24:31.336Z,22.49
2023-04-28T04:25:31.395Z,22.49
2023-04-28T04:26:31.462Z,22.49
2023-04-28T04:27:31.517Z,22.49
2023-04-28T04:28:31.565Z,22.49
2023-04-28T04:29:31.637Z,22.48
2023-04-28T04:30:31.695Z,22.49
2023-04-28T04:31:31.789Z,22.49
2023-04-28T04:32:31.829Z,22.49
2023-04-28T04:33:31.857Z,22.49
2023-04-28T04:34:31.922Z,22.49
2023-04-28T04:35:31.988Z,22.49
2023-04-28T04:36:32.044Z,22.49
2023-04-28T04:37:32.102Z,22.49
2023-04-28T04:38:32.159Z,22.48
2023-04-28T04:39:32.223Z,22.48
2023-04-28T04:40:32.285Z,22.49
2023-04-28T04:41:32.351Z,22.48
2023-04-28T04:42:32.404Z,22.49
2023-04-28T04:43:32.466Z,22.48
2023-04-28T04:44:32.527Z,22.48
2023-04-28T04:45:32.600Z,22.48
2023-04-28T04:46:32.651Z,22.49
2023-04-28T04:47:32.727Z,22.48
2023-04-28T04:48:32.804Z,22.49
2023-04-28T04:49:32.846Z,22.48
2023-04-28T04:50:32.910Z,22.48
2023-04-28T04:51:32.962Z,22.48
2023-04-28T04:52:33.030Z,22.48
2023-04-28T04:53:33.077Z,22.49
2023-04-28T04:54:33.136Z,22.48
2023-04-28T04:55:33.193Z,22.49
2023-04-28T04:56:33.251Z,22.49
2023-04-28T04:57:33.318Z,22.49
2023-04-28T04:58:33.381Z,22.48
2023-04-28T04:59:33.442Z,22.48
2023-04-28T05:00:33.500Z,22.48
2023-04-28T05:01:33.597Z,22.48
2023-04-28T05:02:33.793Z,22.47
2023-04-28T05:03:33.774Z,22.48
2023-04-28T05:04:33.826Z,22.48
2023-04-28T05:05:33.895Z,22.47
2023-04-28T05:06:33.886Z,22.48
2023-04-28T05:07:33.949Z,22.47
2023-04-28T05:08:34.009Z,22.48
2023-04-28T05:09:34.091Z,22.48
2023-04-28T05:10:34.157Z,22.48
2023-04-28T05:11:34.196Z,22.48
2023-04-28T05:12:34.267Z,22.48
2023-04-28T05:13:34.321Z,22.48
2023-04-28T05:14:34.392Z,22.48
2023-04-28T05:15:34.455Z,22.48
2023-04-28T05:16:34.611Z,22.48
2023-04-28T05:17:34.592Z,22.48
2023-04-28T05:18:34.641Z,22.48
2023-04-28T05:19:34.702Z,22.47
2023-04-28T05:20:34.737Z,22.47
2023-04-28T05:21:34.775Z,22.48
2023-04-28T05:22:34.827Z,22.47
2023-04-28T05:23:34.843Z,22.43
2023-04-28T05:24:34.863Z,22.39
2023-04-28T05:25:34.904Z,22.35
2023-04-28T05:26:34.907Z,22.31
2023-04-28T05:27:34.896Z,22.19
2023-04-28T05:28:34.907Z,21.88
2023-04-28T05:29:34.937Z,21.65
2023-04-28T05:30:34.966Z,21.57
2023-04-28T05:31:35.022Z,21.57
2023-04-28T05:32:35.143Z,21.59
2023-04-28T05:33:35.059Z,21.65
2023-04-28T05:34:35.080Z,21.69
2023-04-28T05:35:35.100Z,21.74
2023-04-28T05:36:35.143Z,21.79
2023-04-28T05:37:35.116Z,21.84
2023-04-28T05:38:35.108Z,21.89
2023-04-28T05:39:36.020Z,21.93
2023-04-28T05:40:35.124Z,21.97
2023-04-28T05:41:35.116Z,22.01
2023-04-28T05:42:35.118Z,22.04
2023-04-28T05:43:35.118Z,22.06
2023-04-28T05:44:35.115Z,22.09
2023-04-28T05:45:35.228Z,22.11
2023-04-28T05:46:36.092Z,22.13
2023-04-28T05:47:35.202Z,22.16
2023-04-28T05:48:35.153Z,22.18
2023-04-28T05:49:35.186Z,22.18
2023-04-28T05:50:37.071Z,22.20
2023-04-28T05:51:35.275Z,22.21
2023-04-28T05:52:35.218Z,22.22
2023-04-28T05:53:35.205Z,22.24
2023-04-28T05:54:35.201Z,22.24
2023-04-28T05:55:35.198Z,22.26
2023-04-28T05:56:35.190Z,22.27
2023-04-28T05:57:49.258Z,22.28
2023-04-28T05:58:36.174Z,22.27
2023-04-28T05:59:35.161Z,22.28
2023-04-28T06:00:35.145Z,22.29
2023-04-28T06:01:35.145Z,22.30
2023-04-28T06:02:35.193Z,22.30
2023-04-28T06:03:35.202Z,22.30
2023-04-28T06:04:35.398Z,22.31
2023-04-28T06:05:35.363Z,22.32
2023-04-28T06:06:35.077Z,22.32
2023-04-28T06:07:35.059Z,22.32
2023-04-28T06:08:35.041Z,22.33
2023-04-28T06:09:35.036Z,22.32
2023-04-28T06:10:35.030Z,22.33
2023-04-28T06:11:35.044Z,22.33
2023-04-28T06:12:35.070Z,22.33
2023-04-28T06:13:35.117Z,22.34
2023-04-28T06:14:35.176Z,22.34
2023-04-28T06:15:35.293Z,22.34
2023-04-28T06:16:35.370Z,22.33
2023-04-28T06:17:35.378Z,22.34
2023-04-28T06:18:35.440Z,22.34
2023-04-28T06:19:35.481Z,22.34
2023-04-28T06:20:35.561Z,22.34
2023-04-28T06:21:35.608Z,22.34
2023-04-28T06:22:35.668Z,22.34
2023-04-28T06:23:35.723Z,22.33
2023-04-28T06:24:35.774Z,22.32
2023-04-28T06:25:35.833Z,22.33
2023-04-28T06:26:35.900Z,22.35
2023-04-28T06:27:35.967Z,22.39
2023-04-28T06:28:36.014Z,22.42
2023-04-28T06:29:36.082Z,22.46
2023-04-28T06:30:36.131Z,22.49
2023-04-28T06:31:36.275Z,22.52
2023-04-28T06:32:36.274Z,22.55
2023-04-28T06:33:36.289Z,22.60
2023-04-28T06:34:36.342Z,22.63
2023-04-28T06:35:36.387Z,22.66
2023-04-28T06:36:36.436Z,22.69
2023-04-28T06:37:36.483Z,22.72
2023-04-28T06:38:36.520Z,22.74
2023-04-28T06:39:36.567Z,22.77
2023-04-28T06:40:36.615Z,22.80
2023-04-28T06:41:36.662Z,22.83
2023-04-28T06:42:36.685Z,22.84
2023-04-28T06:43:36.711Z,22.85
2023-04-28T06:44:36.882Z,22.86
2023-04-28T06:45:36.775Z,22.89
2023-04-28T06:46:36.873Z,22.91
2023-04-28T06:47:36.849Z,22.91
2023-04-28T06:48:36.855Z,22.94
2023-04-28T06:49:36.854Z,22.94
2023-04-28T06:50:36.845Z,22.97
2023-04-28T06:51:36.837Z,22.98
2023-04-28T06:52:39.328Z,23.00
2023-04-28T06:53:36.820Z,23.01
2023-04-28T06:54:36.818Z,23.02
2023-04-28T06:55:36.799Z,23.04
2023-04-28T06:56:36.794Z,23.05
2023-04-28T06:57:36.782Z,23.07
2023-04-28T06:58:36.764Z,23.08
2023-04-28T06:59:36.798Z,23.10
2023-04-28T07:00:36.777Z,23.10
2023-04-28T07:01:37.552Z,23.11
2023-04-28T07:02:37.030Z,23.12
2023-04-28T07:03:36.830Z,23.12
2023-04-28T07:04:36.703Z,23.12
2023-04-28T07:05:36.676Z,23.13
2023-04-28T07:06:36.671Z,23.13
2023-04-28T07:07:36.652Z,23.13
2023-04-28T07:08:36.624Z,23.14
2023-04-28T07:09:36.614Z,23.15
2023-04-28T07:10:36.614Z,23.16
2023-04-28T07:11:36.581Z,23.18
2023-04-28T07:12:36.556Z,23.19
2023-04-28T07:13:36.544Z,23.19
2023-04-28T07:14:36.533Z,23.20
2023-04-28T07:15:36.507Z,23.20
2023-04-28T07:16:36.592Z,23.20
2023-04-28T07:17:36.553Z,23.21
2023-04-28T07:18:36.454Z,23.21
2023-04-28T07:19:36.454Z,23.22
2023-04-28T07:20:36.448Z,23.22
2023-04-28T07:21:36.408Z,23.21
2023-04-28T07:22:36.406Z,23.21
2023-04-28T07:23:36.379Z,23.20
2023-04-28T07:24:36.349Z,23.20
2023-04-28T07:25:36.371Z,23.21
2023-04-28T07:26:36.358Z,23.20
2023-04-28T07:27:36.445Z,23.19
2023-04-28T07:28:36.336Z,23.19
2023-04-28T07:29:36.307Z,23.19
2023-04-28T07:30:36.342Z,23.18
2023-04-28T07:31:36.323Z,23.20
2023-04-28T07:32:36.308Z,23.20
2023-04-28T07:33:36.323Z,23.21
2023-04-28T07:34:36.329Z,23.21
2023-04-28T07:35:36.367Z,23.21
2023-04-28T07:36:36.395Z,23.21
2023-04-28T07:37:36.404Z,23.21
2023-04-28T07:38:36.434Z,23.21
2023-04-28T07:39:36.435Z,23.22
2023-04-28T07:40:36.461Z,23.22
2023-04-28T07:41:36.484Z,23.23
2023-04-28T07:42:36.512Z,23.23
2023-04-28T07:43:36.531Z,23.23
2023-04-28T07:44:36.549Z,23.24
2023-04-28T07:45:36.575Z,23.24
2023-04-28T07:46:36.618Z,23.25
2023-04-28T07:47:36.707Z,23.25
2023-04-28T07:48:36.661Z,23.25
2023-04-28T07:49:36.682Z,23.26
2023-04-28T07:50:36.721Z,23.26
2023-04-28T07:51:36.731Z,23.27
2023-04-28T07:52:37.542Z,23.27
2023-04-28T07:53:36.788Z,23.27
2023-04-28T07:54:37.207Z,23.28
2023-04-28T07:55:37.617Z,23.28
2023-04-28T07:56:36.666Z,23.29
2023-04-28T07:57:37.540Z,23.30
2023-04-28T07:58:36.633Z,23.29
2023-04-28T07:59:37.122Z,23.31
2023-04-28T08:00:36.594Z,23.31
2023-04-28T08:01:36.591Z,23.30
2023-04-28T08:02:36.683Z,23.31
2023-04-28T08:03:36.768Z,23.31
2023-04-28T08:04:37.276Z,23.32
2023-04-28T08:05:36.596Z,23.32
2023-04-28T08:06:36.539Z,23.32
2023-04-28T08:07:36.524Z,23.32
2023-04-28T08:08:36.503Z,23.33
2023-04-28T08:09:36.531Z,23.34
2023-04-28T08:10:36.562Z,23.35
2023-04-28T08:11:36.601Z,23.35
2023-04-28T08:12:36.600Z,23.35
2023-04-28T08:13:36.634Z,23.32
2023-04-28T08:14:36.647Z,23.28
2023-04-28T08:15:36.743Z,23.26
2023-04-28T08:16:36.695Z,23.26
2023-04-28T08:17:36.746Z,23.27
2023-04-28T08:18:36.786Z,23.26
2023-04-28T08:19:36.823Z,23.19
2023-04-28T08:20:36.776Z,23.09
2023-04-28T08:21:36.762Z,22.94
2023-04-28T08:22:36.743Z,22.79
2023-04-28T08:23:36.726Z,22.66
2023-04-28T08:24:36.792Z,22.50
2023-04-28T08:25:38.544Z,22.38
2023-04-28T08:26:36.698Z,22.30
2023-04-28T08:27:36.688Z,22.32
2023-04-28T08:28:36.687Z,22.36
2023-04-28T08:29:37.629Z,22.42
2023-04-28T08:30:36.652Z,22.49
2023-04-28T08:31:37.694Z,22.55
2023-04-28T08:32:36.654Z,22.63
2023-04-28T08:33:36.606Z,22.71
2023-04-28T08:34:36.595Z,22.78
2023-04-28T08:35:36.571Z,22.84
2023-04-28T08:36:36.568Z,22.89
2023-04-28T08:37:36.542Z,22.95
2023-04-28T08:38:36.566Z,22.98
2023-04-28T08:39:36.523Z,23.02
2023-04-28T08:40:36.503Z,23.07
2023-04-28T08:41:36.513Z,23.10
2023-04-28T08:42:36.546Z,23.14
2023-04-28T08:43:36.556Z,23.16
2023-04-28T08:44:36.616Z,23.18
2023-04-28T08:45:36.616Z,23.20
2023-04-28T08:46:36.660Z,23.23
2023-04-28T08:47:36.784Z,23.22
2023-04-28T08:48:37.645Z,23.25
2023-04-28T08:49:36.692Z,23.25
2023-04-28T08:50:36.715Z,23.27
2023-04-28T08:51:36.731Z,23.29
2023-04-28T08:52:36.744Z,23.30
2023-04-28T08:53:59.212Z,23.31
2023-04-28T08:54:37.724Z,23.32
2023-04-28T08:55:36.693Z,23.34
2023-04-28T08:56:36.781Z,23.35
2023-04-28T08:57:36.652Z,23.36
2023-04-28T08:58:36.649Z,23.37
2023-04-28T08:59:36.623Z,23.38
2023-04-28T09:00:36.605Z,23.38
2023-04-28T09:01:36.603Z,23.39
2023-04-28T09:02:36.681Z,23.40
2023-04-28T09:03:36.665Z,23.40
2023-04-28T09:04:36.828Z,23.43
2023-04-28T09:05:36.776Z,23.44
2023-04-28T09:06:36.548Z,23.44
2023-04-28T09:07:36.515Z,23.46
2023-04-28T09:08:38.057Z,23.46
2023-04-28T09:09:38.630Z,23.47
2023-04-28T09:10:39.147Z,23.47
2023-04-28T09:11:36.406Z,23.47
2023-04-28T09:12:36.431Z,23.49
2023-04-28T09:13:36.356Z,23.50
2023-04-28T09:14:36.361Z,23.52
2023-04-28T09:15:36.333Z,23.54
2023-04-28T09:16:36.295Z,23.52
2023-04-28T09:17:36.347Z,23.52
2023-04-28T09:18:36.270Z,23.51
2023-04-28T09:19:36.332Z,23.49
2023-04-28T09:20:37.146Z,23.47
2023-04-28T09:21:36.186Z,23.46
2023-04-28T09:22:36.204Z,23.45
2023-04-28T09:23:36.147Z,23.42
2023-04-28T09:24:37.077Z,23.40
2023-04-28T09:25:36.100Z,23.39
2023-04-28T09:26:36.067Z,23.37
2023-04-28T09:27:36.036Z,23.35
2023-04-28T09:28:37.052Z,23.32
2023-04-28T09:29:35.973Z,23.31
2023-04-28T09:30:36.651Z,23.29
2023-04-28T09:31:35.992Z,23.28
2023-04-28T09:32:35.967Z,23.26
2023-04-28T09:33:35.896Z,23.25
2023-04-28T09:34:35.873Z,23.21
2023-04-28T09:35:35.829Z,23.21
2023-04-28T09:36:35.805Z,23.20
2023-04-28T09:37:35.799Z,23.19
2023-04-28T09:38:35.763Z,23.17
2023-04-28T09:39:35.757Z,23.16
2023-04-28T09:40:35.728Z,23.15
2023-04-28T09:41:35.699Z,23.14
2023-04-28T09:42:35.739Z,23.13
2023-04-28T09:43:35.782Z,23.12
2023-04-28T09:44:35.792Z,23.10
2023-04-28T09:45:35.837Z,23.10
2023-04-28T09:46:35.917Z,23.09
2023-04-28T09:47:35.924Z,23.08
2023-04-28T09:48:35.904Z,23.06
2023-04-28T09:49:36.662Z,23.07
2023-04-28T09:50:35.959Z,23.05
2023-04-28T09:51:35.997Z,23.04
2023-04-28T09:52:36.002Z,23.03
2023-04-28T09:53:36.074Z,23.03
2023-04-28T09:54:36.096Z,23.01
2023-04-28T09:55:36.098Z,23.00
2023-04-28T09:56:36.297Z,23.00
2023-04-28T09:57:36.166Z,23.00
2023-04-28T09:58:36.212Z,22.98
2023-04-28T09:59:36.235Z,22.98
2023-04-28T10:00:36.263Z,22.97
2023-04-28T10:01:36.331Z,22.96
2023-04-28T10:03:36.399Z,22.95
2023-04-28T10:04:36.432Z,22.95
2023-04-28T10:05:36.465Z,22.94
2023-04-28T10:06:36.272Z,22.93
2023-04-28T10:07:36.270Z,22.93
2023-04-28T10:08:36.227Z,22.93
2023-04-28T10:09:36.232Z,22.91
2023-04-28T10:10:36.226Z,22.90
2023-04-28T10:11:36.206Z,22.90
2023-04-28T10:12:36.204Z,22.89
2023-04-28T10:13:36.200Z,22.87
2023-04-28T10:14:36.177Z,22.83
2023-04-28T10:15:36.256Z,22.68
2023-04-28T10:16:36.281Z,22.33
2023-04-28T10:17:36.289Z,22.11
2023-04-28T10:18:36.254Z,22.04
2023-04-28T10:19:36.251Z,22.06
2023-04-28T10:20:36.252Z,22.11
2023-04-28T10:21:36.239Z,22.18
2023-04-28T10:22:36.241Z,22.26
2023-04-28T10:23:36.237Z,22.33
2023-04-28T10:24:36.268Z,22.40
2023-04-28T10:25:36.313Z,22.47
2023-04-28T10:26:36.380Z,22.54
2023-04-28T10:27:36.431Z,22.61
2023-04-28T10:28:36.473Z,22.67
2023-04-28T10:29:36.537Z,22.72
2023-04-28T10:30:36.555Z,22.77
2023-04-28T10:31:36.613Z,22.82
2023-04-28T10:32:36.682Z,22.87
2023-04-28T10:33:36.661Z,22.92
2023-04-28T10:34:36.678Z,22.97
2023-04-28T10:35:36.707Z,23.01
2023-04-28T10:36:36.735Z,23.06
2023-04-28T10:37:36.766Z,23.09
2023-04-28T10:38:36.795Z,23.14
2023-04-28T10:39:36.825Z,23.18
2023-04-28T10:40:36.871Z,23.21
2023-04-28T10:41:36.893Z,23.24
2023-04-28T10:42:36.918Z,23.27
2023-04-28T10:43:37.184Z,23.30
2023-04-28T10:44:36.929Z,23.33
2023-04-28T10:45:36.929Z,23.35
2023-04-28T10:46:37.030Z,23.37
2023-04-28T10:47:36.962Z,23.40
2023-04-28T10:48:36.982Z,23.42
2023-04-28T10:49:36.967Z,23.44
2023-04-28T10:50:39.247Z,23.46
2023-04-28T10:51:36.963Z,23.48
2023-04-28T10:52:36.966Z,23.50
2023-04-28T10:53:36.972Z,23.52
2023-04-28T10:54:36.975Z,23.53
2023-04-28T10:55:36.980Z,23.54
2023-04-28T10:56:36.992Z,23.57
2023-04-28T10:57:36.991Z,23.59
2023-04-28T10:58:36.989Z,23.60
2023-04-28T10:59:37.001Z,23.62
2023-04-28T11:00:36.998Z,23.62
2023-04-28T11:01:37.042Z,23.63
2023-04-28T11:02:37.158Z,23.64
2023-04-28T11:03:37.135Z,23.65
2023-04-28T11:04:37.427Z,23.66
2023-04-28T11:05:37.026Z,23.67
2023-04-28T11:06:37.008Z,23.66
2023-04-28T11:07:37.013Z,23.63
2023-04-28T11:08:37.025Z,23.63
2023-04-28T11:09:37.039Z,23.63
2023-04-28T11:10:37.035Z,23.62
2023-04-28T11:11:37.044Z,23.61
2023-04-28T11:12:37.047Z,23.60
2023-04-28T11:13:37.059Z,23.59
2023-04-28T11:14:37.096Z,23.58
2023-04-28T11:15:37.081Z,23.56
2023-04-28T11:16:37.133Z,23.56
2023-04-28T11:17:37.177Z,23.54
2023-04-28T11:18:37.114Z,23.53
2023-04-28T11:19:37.135Z,23.51
2023-04-28T11:20:37.157Z,23.50
2023-04-28T11:21:37.168Z,23.49
2023-04-28T11:22:37.174Z,23.49
2023-04-28T11:23:37.201Z,23.47
2023-04-28T11:24:37.220Z,23.46
2023-04-28T11:25:37.222Z,23.45
2023-04-28T11:26:37.228Z,23.44
2023-04-28T11:27:37.256Z,23.44
2023-04-28T11:28:37.283Z,23.42
2023-04-28T11:29:37.309Z,23.41
2023-04-28T11:30:37.323Z,23.39
2023-04-28T11:31:37.392Z,23.38
2023-04-28T11:32:37.380Z,23.37
2023-04-28T11:33:37.381Z,23.37
2023-04-28T11:34:37.467Z,23.35
2023-04-28T11:35:38.198Z,23.35
2023-04-28T11:36:37.460Z,23.34
2023-04-28T11:37:37.462Z,23.33
2023-04-28T11:38:37.477Z,23.33
2023-04-28T11:39:37.513Z,23.32
2023-04-28T11:40:37.512Z,23.31
2023-04-28T11:41:37.613Z,23.31
2023-04-28T11:42:37.549Z,23.31
2023-04-28T11:43:46.392Z,23.29
2023-04-28T11:44:38.555Z,23.29
2023-04-28T11:45:37.576Z,23.29
2023-04-28T11:46:37.520Z,23.29
2023-04-28T11:47:37.520Z,23.28
2023-04-28T11:48:37.492Z,23.27
2023-04-28T11:49:39.027Z,23.27
2023-04-28T11:50:37.469Z,23.25
2023-04-28T11:51:37.467Z,23.24
2023-04-28T11:52:37.425Z,23.21
2023-04-28T11:53:37.409Z,23.19
2023-04-28T11:54:37.427Z,23.18
2023-04-28T11:55:38.703Z,23.17
2023-04-28T11:56:37.396Z,23.16
2023-04-28T11:57:37.382Z,23.14
2023-04-28T11:58:37.400Z,23.13
2023-04-28T11:59:38.321Z,23.13
2023-04-28T12:00:37.451Z,23.12
2023-04-28T12:01:37.496Z,23.11
2023-04-28T12:02:37.600Z,23.12
2023-04-28T12:03:37.705Z,23.11
2023-04-28T12:04:37.587Z,23.12
2023-04-28T12:05:38.947Z,23.11
2023-04-28T12:06:37.649Z,23.13
2023-04-28T12:07:37.672Z,23.12
2023-04-28T12:08:37.709Z,23.13
2023-04-28T12:09:37.745Z,23.13
2023-04-28T12:10:37.787Z,23.13
2023-04-28T12:11:37.801Z,23.13
2023-04-28T12:12:49.835Z,23.13
2023-04-28T12:13:38.852Z,23.13
2023-04-28T12:14:37.807Z,23.12
2023-04-28T12:15:37.804Z,23.13
2023-04-28T12:16:37.786Z,23.12
2023-04-28T12:17:37.843Z,23.12
2023-04-28T12:18:37.772Z,23.12
2023-04-28T12:19:37.750Z,23.12
2023-04-28T12:20:38.109Z,23.12
2023-04-28T12:21:38.681Z,23.12
2023-04-28T12:22:37.733Z,23.12
2023-04-28T12:23:37.710Z,23.11
2023-04-28T12:24:37.706Z,23.11
2023-04-28T12:25:37.703Z,23.11
2023-04-28T12:26:37.679Z,23.10
2023-04-28T12:27:38.791Z,23.10
2023-04-28T12:28:37.710Z,23.11
2023-04-28T12:29:37.736Z,23.10
2023-04-28T12:30:37.777Z,23.09
2023-04-28T12:31:37.832Z,23.10
2023-04-28T12:32:37.858Z,23.10
2023-04-28T12:33:38.479Z,23.09
2023-04-28T12:34:37.895Z,23.09
2023-04-28T12:35:37.913Z,23.09
2023-04-28T12:36:37.952Z,23.08
2023-04-28T12:37:37.973Z,23.09
2023-04-28T12:38:37.999Z,23.08
2023-04-28T12:39:39.640Z,23.07
2023-04-28T12:40:38.021Z,23.07
2023-04-28T12:41:38.021Z,23.07
2023-04-28T12:42:38.000Z,23.07
2023-04-28T12:43:37.995Z,23.07
2023-04-28T12:44:38.017Z,23.06
2023-04-28T12:45:38.878Z,23.06
2023-04-28T12:46:38.017Z,23.06
2023-04-28T12:47:37.976Z,23.06
2023-04-28T12:48:37.912Z,23.06
2023-04-28T12:49:37.892Z,23.05
2023-04-28T12:50:37.869Z,23.06
2023-04-28T12:51:38.963Z,23.06
2023-04-28T12:52:37.834Z,23.06
2023-04-28T12:53:37.826Z,23.05